createdAt,value
2023-05-04T00:01:18.918Z,60.80
2023-05-04T00:04:21.944Z,60.93
2023-05-04T00:07:25.144Z,60.87
2023-05-04T00:10:28.217Z,60.91
2023-05-04T00:13:31.299Z,61.02
2023-05-04T00:16:35.759Z,61.16
2023-05-04T00:19:41.066Z,61.26
2023-05-04T00:22:44.067Z,61.32
2023-05-04T00:25:47.109Z,61.34
2023-05-04T00:28:50.385Z,61.26
2023-05-04T00:31:53.509Z,61.44
2023-05-04T00:34:57.024Z,61.52
2023-05-04T00:38:04.797Z,61.53
2023-05-04T00:41:07.729Z,61.53
2023-05-04T00:44:10.874Z,61.56
2023-05-04T00:47:14.103Z,61.65
2023-05-04T00:50:17.257Z,61.67
2023-05-04T00:53:20.500Z,61.63
2023-05-04T00:56:24.649Z,61.63
2023-05-04T00:59:27.772Z,61.78
2023-05-04T01:02:31.030Z,61.75
2023-05-04T01:05:43.089Z,61.90
2023-05-04T01:09:02.640Z,61.99
2023-05-04T01:12:15.026Z,61.96
2023-05-04T01:15:18.480Z,62.01
2023-05-04T01:18:23.374Z,62.19
2023-05-04T01:21:29.722Z,62.12
2023-05-04T01:24:33.361Z,62.02
2023-05-04T01:27:58.459Z,61.81
2023-05-04T01:31:02.735Z,61.75
2023-05-04T01:34:08.834Z,61.82
2023-05-04T01:37:11.880Z,61.78
2023-05-04T01:40:15.804Z,61.69
2023-05-04T01:43:18.798Z,61.74
2023-05-04T01:46:22.049Z,61.77
2023-05-04T01:49:25.046Z,61.89
2023-05-04T01:52:28.026Z,61.98
2023-05-04T01:55:31.562Z,62.07
2023-05-04T01:58:34.644Z,62.16
2023-05-04T02:01:37.762Z,62.14
2023-05-04T02:04:41.483Z,62.32
2023-05-04T02:07:44.455Z,62.30
2023-05-04T02:10:48.161Z,62.17
2023-05-04T02:13:51.238Z,62.18
2023-05-04T02:16:54.483Z,62.25
2023-05-04T02:19:57.490Z,62.24
2023-05-04T02:23:00.800Z,62.19
2023-05-04T02:26:03.804Z,62.14
2023-05-04T02:29:06.816Z,62.08
2023-05-04T02:32:09.806Z,62.10
2023-05-04T02:35:13.047Z,62.20
2023-05-04T02:38:16.016Z,62.10
2023-05-04T02:41:19.079Z,62.01
2023-05-04T02:44:22.114Z,62.08
2023-05-04T02:47:25.275Z,62.21
2023-05-04T02:50:28.418Z,62.29
2023-05-04T02:53:31.462Z,62.31
2023-05-04T02:56:34.471Z,62.37
2023-05-04T02:59:37.551Z,62.39
2023-05-04T03:02:41.080Z,62.41
2023-05-04T03:05:44.126Z,62.55
2023-05-04T03:08:47.101Z,62.62
2023-05-04T03:11:50.145Z,62.65
2023-05-04T03:14:53.329Z,62.67
2023-05-04T03:17:56.517Z,62.65
2023-05-04T03:20:59.634Z,62.76
2023-05-04T03:24:03.941Z,62.93
2023-05-04T03:27:07.235Z,62.91
2023-05-04T03:30:14.673Z,62.84
2023-05-04T03:33:20.392Z,63.04
2023-05-04T03:36:23.524Z,63.05
2023-05-04T03:39:26.786Z,63.03
2023-05-04T03:42:29.986Z,63.19
2023-05-04T03:45:33.206Z,63.14
2023-05-04T03:48:36.364Z,63.21
2023-05-04T03:51:40.843Z,63.14
2023-05-04T03:54:44.046Z,63.04
2023-05-04T03:57:47.522Z,63.04
2023-05-04T04:00:50.574Z,63.07
2023-05-04T04:03:53.850Z,63.27
2023-05-04T04:06:57.073Z,63.30
2023-05-04T04:10:00.414Z,63.20
2023-05-04T04:13:03.507Z,63.16
2023-05-04T04:16:06.878Z,63.22
2023-05-04T04:19:09.899Z,63.34
2023-05-04T04:22:12.941Z,63.34
2023-05-04T04:25:15.915Z,63.40
2023-05-04T04:28:18.935Z,63.51
2023-05-04T04:31:22.034Z,63.66
2023-05-04T04:34:25.165Z,63.86
2023-05-04T04:37:28.371Z,63.92
2023-05-04T04:40:31.609Z,64.12
2023-05-04T04:43:34.852Z,64.03
2023-05-04T04:46:37.980Z,63.77
2023-05-04T04:49:41.010Z,63.70
2023-05-04T04:52:44.008Z,63.92
2023-05-04T04:55:47.166Z,63.92
2023-05-04T04:58:50.918Z,64.03
2023-05-04T05:01:53.933Z,64.18
2023-05-04T05:04:57.225Z,64.11
2023-05-04T05:08:00.310Z,63.98
2023-05-04T05:11:04.061Z,63.84
2023-05-04T05:14:07.178Z,63.98
2023-05-04T05:17:10.368Z,64.07
2023-05-04T05:20:15.277Z,63.84
2023-05-04T05:23:18.436Z,63.83
2023-05-04T05:26:21.762Z,63.57
2023-05-04T05:29:25.836Z,63.06
2023-05-04T05:32:29.294Z,63.78
2023-05-04T05:35:32.225Z,64.15
2023-05-04T05:38:35.434Z,64.20
2023-05-04T05:41:38.427Z,64.13
2023-05-04T05:44:41.542Z,64.08
2023-05-04T05:47:44.575Z,62.35
2023-05-04T05:50:47.670Z,61.92
2023-05-04T05:53:50.696Z,61.03
2023-05-04T05:56:53.692Z,60.33
2023-05-04T05:59:57.916Z,60.01
2023-05-04T06:03:00.942Z,59.41
2023-05-04T06:06:04.333Z,58.79
2023-05-04T06:09:07.345Z,58.55
2023-05-04T06:12:13.558Z,58.10
2023-05-04T06:15:16.658Z,57.12
2023-05-04T06:18:20.459Z,56.85
2023-05-04T06:21:23.481Z,56.78
2023-05-04T06:24:27.132Z,56.50
2023-05-04T06:28:26.188Z,55.75
2023-05-04T06:31:29.567Z,55.30
2023-05-04T06:34:41.606Z,54.46
2023-05-04T06:37:45.082Z,54.22
2023-05-04T06:40:48.519Z,54.00
2023-05-04T06:43:51.842Z,52.92
2023-05-04T06:47:01.555Z,52.30
2023-05-04T06:50:09.658Z,52.44
2023-05-04T06:53:16.105Z,50.85
2023-05-04T06:56:19.245Z,50.05
2023-05-04T06:59:27.614Z,50.02
2023-05-04T07:02:30.890Z,48.96
2023-05-04T07:05:48.731Z,48.85
2023-05-04T07:08:52.054Z,48.03
2023-05-04T07:11:56.298Z,48.76
2023-05-04T07:15:02.418Z,48.19
2023-05-04T07:18:51.133Z,47.53
2023-05-04T07:22:41.318Z,47.78
2023-05-04T07:25:48.480Z,47.38
2023-05-04T07:28:52.108Z,47.43
2023-05-04T07:32:27.247Z,46.79
2023-05-04T07:39:30.636Z,45.38
2023-05-04T07:46:49.449Z,44.84
2023-05-04T07:53:55.178Z,44.32
2023-05-04T07:56:58.590Z,43.81
2023-05-04T08:00:01.853Z,43.58
2023-05-04T08:03:08.032Z,42.73
2023-05-04T08:06:17.440Z,42.85
2023-05-04T08:09:20.645Z,41.72
2023-05-04T08:12:26.270Z,41.93
2023-05-04T08:15:36.602Z,41.61
2023-05-04T08:18:39.772Z,41.72
2023-05-04T08:21:42.987Z,42.26
2023-05-04T08:25:23.017Z,40.01
2023-05-04T08:28:24.781Z,40.66
2023-05-04T08:31:26.645Z,41.45
2023-05-04T08:34:28.386Z,40.59
2023-05-04T08:37:32.008Z,39.76
2023-05-04T08:40:34.443Z,39.89
2023-05-04T08:43:36.873Z,39.40
2023-05-04T08:46:40.406Z,39.13
2023-05-04T08:49:53.738Z,38.85
2023-05-04T08:53:51.822Z,39.75
2023-05-04T09:02:00.007Z,39.95
2023-05-04T09:05:02.175Z,39.97
2023-05-04T09:14:12.236Z,37.76
2023-05-04T09:21:16.914Z,38.31
2023-05-04T09:24:30.811Z,37.77
2023-05-04T09:27:34.221Z,37.95
2023-05-04T09:49:29.429Z,35.23
2023-05-04T09:53:06.066Z,35.94
2023-05-04T09:56:48.813Z,37.08
2023-05-04T10:00:22.413Z,36.13
2023-05-04T10:19:32.369Z,35.46
2023-05-04T10:23:52.308Z,35.91
2023-05-04T10:28:40.606Z,34.77
2023-05-04T10:31:44.974Z,34.84
2023-05-04T10:35:10.174Z,35.10
2023-05-04T10:38:16.565Z,34.73
2023-05-04T10:41:21.958Z,34.69
2023-05-04T10:44:25.642Z,34.39
2023-05-04T10:47:45.336Z,33.71
2023-05-04T10:50:51.647Z,34.01
2023-05-04T10:53:54.761Z,34.38
2023-05-04T10:57:12.727Z,34.49
2023-05-04T11:00:16.717Z,34.36
2023-05-04T11:03:22.476Z,34.04
2023-05-04T11:06:26.377Z,33.48
2023-05-04T11:09:37.524Z,34.15
2023-05-04T11:12:40.814Z,34.19
2023-05-04T11:16:04.971Z,35.50
2023-05-04T11:19:12.618Z,35.36
2023-05-04T11:22:17.063Z,34.65
2023-05-04T11:25:30.478Z,34.37
2023-05-04T11:28:37.978Z,33.81
2023-05-04T11:31:41.376Z,33.12
2023-05-04T11:34:48.386Z,33.20
2023-05-04T11:37:51.787Z,32.80
2023-05-04T11:40:55.605Z,31.92
2023-05-04T11:44:01.826Z,32.92
2023-05-04T11:47:05.127Z,32.41
2023-05-04T11:50:11.061Z,32.79
2023-05-04T11:53:14.369Z,32.97
2023-05-04T11:56:17.488Z,33.34
2023-05-04T11:59:20.970Z,32.84
2023-05-04T12:02:25.882Z,33.11
2023-05-04T12:05:31.154Z,33.40
2023-05-04T12:08:47.689Z,32.12
2023-05-04T12:11:56.384Z,35.63
2023-05-04T12:14:59.363Z,33.79
2023-05-04T12:18:03.501Z,33.45
2023-05-04T12:21:10.482Z,33.43
2023-05-04T12:24:13.879Z,33.43
2023-05-04T12:27:17.723Z,33.88
2023-05-04T12:30:20.854Z,34.39
2023-05-04T12:33:24.062Z,34.42
2023-05-04T12:36:27.783Z,33.56
2023-05-04T12:39:32.660Z,34.28
2023-05-04T12:42:35.699Z,34.07
2023-05-04T12:45:39.294Z,33.89
2023-05-04T12:48:42.417Z,33.26
2023-05-04T12:51:45.925Z,33.07
2023-05-04T12:54:49.891Z,32.97
2023-05-04T12:57:53.260Z,33.21
2023-05-04T13:00:58.072Z,34.03
2023-05-04T13:04:01.438Z,33.52
2023-05-04T13:07:04.590Z,33.37
2023-05-04T13:10:08.373Z,32.85
2023-05-04T13:13:11.528Z,33.69
2023-05-04T13:16:15.092Z,33.76
2023-05-04T13:19:18.559Z,33.24
2023-05-04T13:22:22.012Z,33.04
2023-05-04T13:25:25.638Z,33.49
2023-05-04T13:28:39.352Z,33.45
2023-05-04T13:31:44.777Z,33.80
2023-05-04T13:34:49.217Z,34.76
2023-05-04T13:37:52.638Z,35.09
2023-05-04T13:40:56.067Z,33.90
2023-05-04T13:43:59.522Z,33.96
2023-05-04T13:47:03.438Z,34.76
2023-05-04T13:50:07.316Z,33.94
2023-05-04T13:53:13.623Z,34.34
2023-05-04T13:56:16.735Z,34.53
2023-05-04T13:59:20.204Z,34.52
2023-05-04T14:02:23.546Z,34.22
2023-05-04T14:05:26.755Z,33.75
2023-05-04T14:08:30.837Z,33.26
2023-05-04T14:11:33.997Z,33.85
2023-05-04T14:14:37.016Z,34.39
2023-05-04T14:17:41.432Z,33.58
2023-05-04T14:20:44.534Z,33.80
2023-05-04T14:23:48.040Z,34.05
2023-05-04T14:26:51.230Z,33.70
2023-05-04T14:29:54.380Z,34.52
2023-05-04T14:32:58.330Z,34.04
2023-05-04T14:36:01.889Z,34.17
2023-05-04T14:39:13.840Z,34.03
2023-05-04T14:42:30.363Z,33.96
2023-05-04T14:46:32.288Z,33.92
2023-05-04T14:49:37.678Z,34.59
2023-05-04T14:52:42.269Z,34.37
2023-05-04T14:55:53.589Z,34.19
2023-05-04T14:59:01.739Z,34.03
2023-05-04T15:10:03.497Z,34.34
2023-05-04T15:14:08.320Z,34.15
2023-05-04T15:21:46.130Z,34.55
2023-05-04T15:24:49.137Z,34.97
2023-05-04T15:27:52.165Z,35.56
2023-05-04T15:30:55.231Z,35.80
2023-05-04T15:34:00.553Z,36.52
2023-05-04T15:37:03.593Z,35.85
2023-05-04T15:40:08.104Z,35.32
2023-05-04T15:43:11.430Z,35.35
2023-05-04T15:46:37.789Z,34.72
2023-05-04T15:49:40.919Z,35.52
2023-05-04T15:52:43.983Z,35.13
2023-05-04T15:55:46.939Z,35.35
2023-05-04T15:58:50.095Z,35.20
2023-05-04T16:01:53.431Z,35.06
2023-05-04T16:04:56.475Z,35.05
2023-05-04T16:08:01.273Z,35.92
2023-05-04T16:11:05.452Z,35.86
2023-05-04T16:14:08.576Z,35.76
2023-05-04T16:17:11.727Z,35.53
2023-05-04T16:59:15.907Z,38.49
2023-05-04T17:02:17.867Z,38.60
2023-05-04T17:05:20.424Z,38.69
2023-05-04T17:08:22.692Z,38.72
2023-05-04T17:11:24.984Z,38.78
2023-05-04T17:14:26.679Z,38.70
2023-05-04T17:17:28.532Z,39.40
2023-05-04T17:20:31.244Z,40.22
2023-05-04T17:23:32.992Z,40.30
2023-05-04T17:26:34.702Z,40.80
2023-05-04T17:29:36.380Z,41.07
2023-05-04T17:32:38.141Z,41.11
2023-05-04T17:35:40.302Z,41.39
2023-05-04T17:38:41.871Z,41.60
2023-05-04T17:41:47.887Z,41.33
2023-05-04T17:44:49.624Z,42.03
2023-05-04T17:47:51.646Z,42.32
2023-05-04T17:50:53.423Z,42.67
2023-05-04T17:53:55.141Z,42.72
2023-05-04T17:56:56.838Z,42.85
2023-05-04T18:00:04.539Z,42.86
2023-05-04T18:03:06.749Z,43.20
2023-05-04T18:06:08.973Z,43.56
2023-05-04T18:09:11.202Z,43.97
2023-05-04T18:12:13.244Z,44.14
2023-05-04T18:15:17.788Z,43.83
2023-05-04T18:18:19.472Z,44.28
2023-05-04T18:21:21.345Z,44.51
2023-05-04T18:24:23.001Z,44.94
2023-05-04T18:27:24.698Z,44.98
2023-05-04T18:30:26.716Z,45.29
2023-05-04T18:33:28.757Z,45.38
2023-05-04T18:36:30.555Z,45.42
2023-05-04T18:39:32.317Z,45.61
2023-05-04T18:42:34.126Z,45.80
2023-05-04T18:45:39.260Z,45.92
2023-05-04T18:48:41.405Z,46.13
2023-05-04T18:51:43.783Z,45.79
2023-05-04T18:55:11.363Z,45.97
2023-05-04T18:58:13.196Z,46.17
2023-05-04T19:01:15.218Z,46.11
2023-05-04T19:04:17.104Z,46.33
2023-05-04T19:07:32.335Z,46.31
2023-05-04T19:10:34.175Z,46.15
2023-05-04T19:13:36.298Z,46.27
2023-05-04T19:16:38.121Z,46.18
2023-05-04T19:19:39.977Z,46.16
2023-05-04T19:22:41.720Z,46.66
2023-05-04T19:25:44.686Z,46.78
2023-05-04T19:28:48.561Z,46.63
2023-05-04T19:31:50.309Z,46.88
2023-05-04T19:34:52.168Z,46.62
2023-05-04T19:37:53.886Z,46.39
2023-05-04T19:40:56.013Z,46.48
2023-05-04T19:43:57.746Z,46.52
2023-05-04T19:46:59.686Z,46.55
2023-05-04T19:50:03.018Z,46.79
2023-05-04T19:53:12.285Z,46.98
2023-05-04T19:56:14.002Z,47.20
2023-05-04T19:59:15.792Z,47.27
2023-05-04T20:02:17.685Z,47.07
2023-05-04T20:05:19.475Z,47.31
2023-05-04T20:08:21.204Z,47.44
2023-05-04T20:11:22.902Z,47.73
2023-05-04T20:14:24.649Z,47.96
2023-05-04T20:17:26.885Z,48.19
2023-05-04T20:20:28.461Z,48.42
2023-05-04T20:23:30.194Z,48.05
2023-05-04T20:26:32.054Z,48.29
2023-05-04T20:29:34.271Z,48.50
2023-05-04T20:32:35.910Z,48.44
2023-05-04T20:35:40.258Z,48.19
2023-05-04T20:38:41.921Z,48.51
2023-05-04T20:41:43.628Z,48.67
2023-05-04T20:44:45.440Z,48.94
2023-05-04T20:47:47.215Z,48.93
2023-05-04T20:50:50.331Z,48.87
2023-05-04T20:53:53.403Z,48.92
2023-05-04T20:56:55.457Z,49.14
2023-05-04T20:59:57.271Z,49.27
2023-05-04T21:02:59.058Z,49.43
2023-05-04T21:06:01.348Z,49.79
2023-05-04T21:09:03.709Z,49.61
2023-05-04T21:12:05.416Z,49.46
2023-05-04T21:15:07.868Z,49.72
2023-05-04T21:18:09.931Z,49.85
2023-05-04T21:21:11.646Z,49.75
2023-05-04T21:24:13.623Z,50.08
2023-05-04T21:27:15.282Z,50.16
2023-05-04T21:30:17.077Z,50.14
2023-05-04T21:33:18.758Z,49.93
2023-05-04T21:36:22.358Z,50.13
2023-05-04T21:39:24.086Z,50.09
2023-05-04T21:42:25.806Z,50.25
2023-05-04T21:45:32.919Z,50.08
2023-05-04T21:48:35.422Z,50.43
2023-05-04T21:51:37.242Z,50.52
2023-05-04T21:54:39.047Z,50.43
2023-05-04T21:57:40.864Z,50.70
2023-05-04T22:00:43.567Z,50.81
2023-05-04T22:03:45.432Z,50.83
2023-05-04T22:06:47.689Z,51.03
2023-05-04T22:09:49.318Z,51.29
2023-05-04T22:12:51.337Z,51.49
2023-05-04T22:15:53.233Z,51.39
2023-05-04T22:18:54.932Z,51.61
2023-05-04T22:21:56.591Z,51.42
2023-05-04T22:24:58.282Z,51.92
2023-05-04T22:28:00.243Z,52.17
2023-05-04T22:31:01.959Z,52.69
2023-05-04T22:34:03.754Z,52.58
2023-05-04T22:37:05.439Z,52.42
2023-05-04T22:40:08.241Z,52.64
2023-05-04T22:43:10.064Z,52.65
2023-05-04T22:46:16.254Z,52.81
2023-05-04T22:49:17.973Z,52.90
2023-05-04T22:52:19.950Z,53.15
2023-05-04T22:55:21.729Z,53.13
2023-05-04T22:58:23.542Z,53.59
2023-05-04T23:01:26.816Z,53.44
2023-05-04T23:04:29.485Z,53.57
2023-05-04T23:07:31.350Z,53.50
2023-05-04T23:10:33.073Z,53.53
2023-05-04T23:13:34.749Z,53.49
2023-05-04T23:16:37.033Z,53.72
2023-05-04T23:19:38.683Z,54.03
2023-05-04T23:22:40.684Z,53.71
2023-05-04T23:25:42.526Z,53.77
2023-05-04T23:28:44.300Z,53.83
2023-05-04T23:31:46.031Z,54.25
2023-05-04T23:34:47.739Z,54.23
2023-05-04T23:37:49.488Z,54.47
2023-05-04T23:40:51.554Z,54.47
2023-05-04T23:43:53.294Z,54.54
2023-05-04T23:46:55.034Z,54.54
2023-05-04T23:49:56.704Z,54.65
2023-05-04T23:52:58.351Z,54.77
2023-05-04T23:56:03.488Z,54.82
2023-05-04T23:59:05.977Z,55.04
